sensor_id;sensor_type;location;lat;lon;timestamp;pressure;altitude;pressure_sealevel;temperature;humidity
41264;BME280;26998;48.714;9.414;2023-06-10T00:02:19;98693.28;;;16.00;100.00
41264;BME280;26998;48.714;9.414;2023-06-10T00:04:46;98688.16;;;15.98;100.00
41264;BME280;26998;48.714;9.414;2023-06-10T00:07:13;98686.63;;;15.90;100.00
41264;BME280;26998;48.714;9.414;2023-06-10T00:09:40;98699.06;;;15.80;100.00
41264;BME280;26998;48.714;9.414;2023-06-10T00:12:08;98706.91;;;15.69;100.00
41264;BME280;26998;48.714;9.414;2023-06-10T00:14:37;98709.94;;;15.73;100.00
41264;BME280;26998;48.714;9.414;2023-06-10T00:17:04;98702.25;;;15.77;100.00
41264;BME280;26998;48.714;9.414;2023-06-10T00:19:31;98690.63;;;15.76;100.00
41264;BME280;26998;48.714;9.414;2023-06-10T00:21:58;98703.84;;;15.66;100.00
41264;BME280;26998;48.714;9.414;2023-06-10T00:24:25;98719.00;;;15.67;100.00
41264;BME280;26998;48.714;9.414;2023-06-10T00:26:51;98706.44;;;15.73;100.00
41264;BME280;26998;48.714;9.414;2023-06-10T00:29:18;98705.06;;;15.70;100.00
41264;BME280;26998;48.714;9.414;2023-06-10T00:31:45;98724.91;;;15.45;100.00
41264;BME280;26998;48.714;9.414;2023-06-10T00:34:12;98769.56;;;15.23;100.00
41264;BME280;26998;48.714;9.414;2023-06-10T00:36:39;98799.84;;;15.07;100.00
41264;BME280;26998;48.714;9.414;2023-06-10T00:39:05;98817.59;;;14.96;100.00
41264;BME280;26998;48.714;9.414;2023-06-10T00:41:32;98833.00;;;14.89;100.00
41264;BME280;26998;48.714;9.414;2023-06-10T00:43:59;98842.38;;;14.86;100.00
41264;BME280;26998;48.714;9.414;2023-06-10T00:46:26;98853.13;;;14.86;100.00
41264;BME280;26998;48.714;9.414;2023-06-10T00:48:53;98865.16;;;14.84;100.00
41264;BME280;26998;48.714;9.414;2023-06-10T00:51:20;98857.09;;;14.84;100.00
41264;BME280;26998;48.714;9.414;2023-06-10T00:53:48;98855.66;;;14.81;100.00
41264;BME280;26998;48.714;9.414;2023-06-10T00:56:16;98863.81;;;14.74;100.00
41264;BME280;26998;48.714;9.414;2023-06-10T00:58:43;98860.88;;;14.76;100.00
41264;BME280;26998;48.714;9.414;2023-06-10T01:01:10;98865.53;;;14.87;100.00
41264;BME280;26998;48.714;9.414;2023-06-10T01:03:38;98849.09;;;14.95;100.00
41264;BME280;26998;48.714;9.414;2023-06-10T01:06:16;98853.94;;;14.87;100.00
41264;BME280;26998;48.714;9.414;2023-06-10T01:09:01;98851.25;;;14.87;100.00
41264;BME280;26998;48.714;9.414;2023-06-10T01:11:36;98851.38;;;14.92;100.00
41264;BME280;26998;48.714;9.414;2023-06-10T01:14:04;98846.84;;;14.92;100.00
41264;BME280;26998;48.714;9.414;2023-06-10T01:16:31;98849.13;;;14.89;100.00
41264;BME280;26998;48.714;9.414;2023-06-10T01:18:58;98860.06;;;14.75;100.00
41264;BME280;26998;48.714;9.414;2023-06-10T01:21:25;98869.31;;;14.79;100.00
41264;BME280;26998;48.714;9.414;2023-06-10T01:23:53;98877.72;;;14.71;100.00
41264;BME280;26998;48.714;9.414;2023-06-10T01:26:25;98889.13;;;14.67;100.00
41264;BME280;26998;48.714;9.414;2023-06-10T01:29:07;98892.44;;;14.69;100.00
41264;BME280;26998;48.714;9.414;2023-06-10T01:32:12;98903.03;;;14.64;100.00
41264;BME280;26998;48.714;9.414;2023-06-10T01:34:42;98895.94;;;14.69;100.00
41264;BME280;26998;48.714;9.414;2023-06-10T01:37:12;98891.97;;;14.72;100.00
41264;BME280;26998;48.714;9.414;2023-06-10T01:39:40;98890.56;;;14.69;100.00
41264;BME280;26998;48.714;9.414;2023-06-10T01:42:08;98897.13;;;14.73;100.00
41264;BME280;26998;48.714;9.414;2023-06-10T01:44:38;98894.59;;;14.60;100.00
41264;BME280;26998;48.714;9.414;2023-06-10T01:47:07;98914.56;;;14.46;100.00
41264;BME280;26998;48.714;9.414;2023-06-10T01:49:34;98921.41;;;14.42;100.00
41264;BME280;26998;48.714;9.414;2023-06-10T01:52:01;98943.38;;;14.39;100.00
41264;BME280;26998;48.714;9.414;2023-06-10T01:54:28;98927.56;;;14.49;100.00
41264;BME280;26998;48.714;9.414;2023-06-10T01:56:55;98931.69;;;14.51;100.00
41264;BME280;26998;48.714;9.414;2023-06-10T01:59:21;98924.16;;;14.60;100.00
41264;BME280;26998;48.714;9.414;2023-06-10T02:01:48;98925.44;;;14.58;100.00
41264;BME280;26998;48.714;9.414;2023-06-10T02:04:15;98922.69;;;14.64;100.00
41264;BME280;26998;48.714;9.414;2023-06-10T02:06:42;98927.97;;;14.52;100.00
41264;BME280;26998;48.714;9.414;2023-06-10T02:09:09;98951.28;;;14.33;100.00
41264;BME280;26998;48.714;9.414;2023-06-10T02:11:38;98962.91;;;14.27;100.00
41264;BME280;26998;48.714;9.414;2023-06-10T02:14:05;98960.44;;;14.26;100.00
41264;BME280;26998;48.714;9.414;2023-06-10T02:16:31;98970.81;;;14.22;100.00
41264;BME280;26998;48.714;9.414;2023-06-10T02:18:58;98980.78;;;14.15;100.00
41264;BME280;26998;48.714;9.414;2023-06-10T02:21:25;98990.31;;;14.11;100.00
41264;BME280;26998;48.714;9.414;2023-06-10T02:23:51;98991.97;;;14.12;100.00
41264;BME280;26998;48.714;9.414;2023-06-10T02:26:18;98999.44;;;14.10;100.00
41264;BME280;26998;48.714;9.414;2023-06-10T02:28:45;98997.34;;;14.12;100.00
41264;BME280;26998;48.714;9.414;2023-06-10T02:31:11;98999.44;;;14.10;100.00
41264;BME280;26998;48.714;9.414;2023-06-10T02:33:39;98994.66;;;14.12;100.00
41264;BME280;26998;48.714;9.414;2023-06-10T02:36:06;98998.38;;;14.11;100.00
41264;BME280;26998;48.714;9.414;2023-06-10T02:38:33;98999.44;;;14.10;100.00
41264;BME280;26998;48.714;9.414;2023-06-10T02:40:59;98989.72;;;14.09;100.00
41264;BME280;26998;48.714;9.414;2023-06-10T02:43:26;98999.66;;;14.08;100.00
41264;BME280;26998;48.714;9.414;2023-06-10T02:45:52;98999.00;;;14.13;100.00
41264;BME280;26998;48.714;9.414;2023-06-10T02:48:19;99002.72;;;14.12;100.00
41264;BME280;26998;48.714;9.414;2023-06-10T02:50:45;99003.75;;;14.11;100.00
41264;BME280;26998;48.714;9.414;2023-06-10T02:53:12;98993.84;;;14.12;100.00
41264;BME280;26998;48.714;9.414;2023-06-10T02:55:39;98990.75;;;14.08;100.00
41264;BME280;26998;48.714;9.414;2023-06-10T02:58:05;99010.19;;;14.10;100.00
41264;BME280;26998;48.714;9.414;2023-06-10T03:00:32;99011.66;;;14.06;100.00
41264;BME280;26998;48.714;9.414;2023-06-10T03:02:59;99018.09;;;14.05;100.00
41264;BME280;26998;48.714;9.414;2023-06-10T03:05:26;99008.59;;;14.02;100.00
41264;BME280;26998;48.714;9.414;2023-06-10T03:07:53;99013.72;;;14.04;100.00
41264;BME280;26998;48.714;9.414;2023-06-10T03:10:20;99010.22;;;14.03;100.00
41264;BME280;26998;48.714;9.414;2023-06-10T03:12:46;99008.19;;;13.99;100.00
41264;BME280;26998;48.714;9.414;2023-06-10T03:15:13;99016.47;;;13.97;100.00
41264;BME280;26998;48.714;9.414;2023-06-10T03:17:40;99038.78;;;13.98;100.00
41264;BME280;26998;48.714;9.414;2023-06-10T03:20:07;99040.88;;;13.96;100.00
41264;BME280;26998;48.714;9.414;2023-06-10T03:22:34;99041.91;;;13.95;100.00
41264;BME280;26998;48.714;9.414;2023-06-10T03:25:01;99050.56;;;13.97;100.00
41264;BME280;26998;48.714;9.414;2023-06-10T03:27:28;99059.84;;;14.01;100.00
41264;BME280;26998;48.714;9.414;2023-06-10T03:29:55;99050.53;;;14.03;100.00
41264;BME280;26998;48.714;9.414;2023-06-10T03:32:22;99052.00;;;13.99;100.00
41264;BME280;26998;48.714;9.414;2023-06-10T03:34:49;99055.72;;;14.05;100.00
41264;BME280;26998;48.714;9.414;2023-06-10T03:37:15;99069.72;;;14.07;100.00
41264;BME280;26998;48.714;9.414;2023-06-10T03:39:42;99070.94;;;14.11;100.00
41264;BME280;26998;48.714;9.414;2023-06-10T03:42:08;99082.53;;;14.12;100.00
41264;BME280;26998;48.714;9.414;2023-06-10T03:44:35;99092.88;;;14.08;100.00
41264;BME280;26998;48.714;9.414;2023-06-10T03:47:02;99089.75;;;14.11;100.00
41264;BME280;26998;48.714;9.414;2023-06-10T03:49:29;99091.22;;;14.07;100.00
41264;BME280;26998;48.714;9.414;2023-06-10T03:51:55;99113.00;;;13.99;100.00
41264;BME280;26998;48.714;9.414;2023-06-10T03:54:22;99113.22;;;13.91;100.00
41264;BME280;26998;48.714;9.414;2023-06-10T03:56:49;99121.91;;;13.93;100.00
41264;BME280;26998;48.714;9.414;2023-06-10T03:59:16;99117.97;;;13.89;100.00
41264;BME280;26998;48.714;9.414;2023-06-10T04:01:42;99127.25;;;13.99;100.00
41264;BME280;26998;48.714;9.414;2023-06-10T04:04:09;99115.84;;;14.04;100.00
41264;BME280;26998;48.714;9.414;2023-06-10T04:06:36;99114.63;;;14.00;100.00
41264;BME280;26998;48.714;9.414;2023-06-10T04:09:03;99115.28;;;13.89;100.00
41264;BME280;26998;48.714;9.414;2023-06-10T04:11:30;99130.59;;;13.88;100.00
41264;BME280;26998;48.714;9.414;2023-06-10T04:13:56;99131.44;;;13.82;100.00
41264;BME280;26998;48.714;9.414;2023-06-10T04:16:23;99135.97;;;13.88;100.00
41264;BME280;26998;48.714;9.414;2023-06-10T04:18:50;99128.50;;;13.97;100.00
41264;BME280;26998;48.714;9.414;2023-06-10T04:21:16;99120.22;;;14.05;100.00
41264;BME280;26998;48.714;9.414;2023-06-10T04:23:44;99110.25;;;14.12;100.00
41264;BME280;26998;48.714;9.414;2023-06-10T04:26:11;99105.47;;;14.14;100.00
41264;BME280;26998;48.714;9.414;2023-06-10T04:28:38;99105.06;;;14.49;100.00
41264;BME280;26998;48.714;9.414;2023-06-10T04:31:05;98972.09;;;16.04;100.00
41264;BME280;26998;48.714;9.414;2023-06-10T04:33:32;98770.16;;;17.06;100.00
41264;BME280;26998;48.714;9.414;2023-06-10T04:35:58;98695.69;;;17.78;100.00
41264;BME280;26998;48.714;9.414;2023-06-10T04:38:25;98619.88;;;18.34;100.00
41264;BME280;26998;48.714;9.414;2023-06-10T04:40:54;98567.50;;;19.04;100.00
41264;BME280;26998;48.714;9.414;2023-06-10T04:43:20;98518.34;;;19.96;100.00
41264;BME280;26998;48.714;9.414;2023-06-10T04:45:47;98472.88;;;20.59;100.00
41264;BME280;26998;48.714;9.414;2023-06-10T04:48:14;98439.22;;;22.00;99.68
41264;BME280;26998;48.714;9.414;2023-06-10T04:50:40;98443.22;;;21.68;100.00
41264;BME280;26998;48.714;9.414;2023-06-10T04:53:08;98440.03;;;21.56;100.00
41264;BME280;26998;48.714;9.414;2023-06-10T04:55:35;98427.78;;;21.98;99.34
41264;BME280;26998;48.714;9.414;2023-06-10T04:58:02;98427.81;;;22.62;97.23
41264;BME280;26998;48.714;9.414;2023-06-10T05:00:28;98429.16;;;22.64;93.63
41264;BME280;26998;48.714;9.414;2023-06-10T05:02:55;98427.06;;;22.85;95.12
41264;BME280;26998;48.714;9.414;2023-06-10T05:05:22;98431.28;;;23.87;90.80
41264;BME280;26998;48.714;9.414;2023-06-10T05:07:49;98429.53;;;23.96;87.98
41264;BME280;26998;48.714;9.414;2023-06-10T05:10:15;98422.09;;;23.40;87.68
41264;BME280;26998;48.714;9.414;2023-06-10T05:12:42;98433.53;;;23.61;87.63
41264;BME280;26998;48.714;9.414;2023-06-10T05:15:09;98429.94;;;23.23;89.68
41264;BME280;26998;48.714;9.414;2023-06-10T05:17:36;98428.63;;;23.39;87.97
41264;BME280;26998;48.714;9.414;2023-06-10T05:20:03;98434.47;;;23.76;89.61
41264;BME280;26998;48.714;9.414;2023-06-10T05:22:30;98433.28;;;23.82;87.92
41264;BME280;26998;48.714;9.414;2023-06-10T05:24:57;98434.44;;;24.13;87.61
41264;BME280;26998;48.714;9.414;2023-06-10T05:27:25;98431.03;;;24.87;80.22
41264;BME280;26998;48.714;9.414;2023-06-10T05:29:52;98437.16;;;24.65;81.47
41264;BME280;26998;48.714;9.414;2023-06-10T05:32:18;98439.78;;;24.70;82.34
41264;BME280;26998;48.714;9.414;2023-06-10T05:34:45;98439.72;;;24.89;79.32
41264;BME280;26998;48.714;9.414;2023-06-10T05:37:12;98442.59;;;24.51;80.59
41264;BME280;26998;48.714;9.414;2023-06-10T05:39:39;98434.75;;;23.07;90.86
41264;BME280;26998;48.714;9.414;2023-06-10T05:42:06;98439.63;;;23.34;91.58
41264;BME280;26998;48.714;9.414;2023-06-10T05:44:34;98436.25;;;23.18;90.78
41264;BME280;26998;48.714;9.414;2023-06-10T05:47:00;98432.47;;;23.14;93.41
41264;BME280;26998;48.714;9.414;2023-06-10T05:49:28;98433.34;;;23.34;90.15
41264;BME280;26998;48.714;9.414;2023-06-10T05:51:55;98434.88;;;22.97;94.38
41264;BME280;26998;48.714;9.414;2023-06-10T05:54:21;98433.13;;;23.06;92.47
41264;BME280;26998;48.714;9.414;2023-06-10T05:56:48;98435.25;;;23.33;91.36
41264;BME280;26998;48.714;9.414;2023-06-10T05:59:15;98441.53;;;23.95;89.46
41264;BME280;26998;48.714;9.414;2023-06-10T06:01:41;98445.22;;;24.05;87.88
41264;BME280;26998;48.714;9.414;2023-06-10T06:04:08;98445.13;;;24.10;87.94
41264;BME280;26998;48.714;9.414;2023-06-10T06:06:35;98441.63;;;24.75;86.10
41264;BME280;26998;48.714;9.414;2023-06-10T06:09:01;98436.69;;;24.91;84.57
41264;BME280;26998;48.714;9.414;2023-06-10T06:11:29;98437.03;;;24.56;82.86
41264;BME280;26998;48.714;9.414;2023-06-10T06:13:55;98449.06;;;25.57;77.56
41264;BME280;26998;48.714;9.414;2023-06-10T06:16:22;98437.88;;;25.17;80.02
41264;BME280;26998;48.714;9.414;2023-06-10T06:18:49;98444.13;;;25.31;81.73
41264;BME280;26998;48.714;9.414;2023-06-10T06:21:15;98441.78;;;24.51;85.09
41264;BME280;26998;48.714;9.414;2023-06-10T06:23:42;98439.84;;;24.84;85.38
41264;BME280;26998;48.714;9.414;2023-06-10T06:26:09;98439.63;;;25.63;80.58
41264;BME280;26998;48.714;9.414;2023-06-10T06:28:36;98443.63;;;25.29;80.98
41264;BME280;26998;48.714;9.414;2023-06-10T06:31:03;98442.50;;;25.58;76.48
41264;BME280;26998;48.714;9.414;2023-06-10T06:33:29;98448.25;;;26.07;74.32
41264;BME280;26998;48.714;9.414;2023-06-10T06:35:56;98441.31;;;25.73;77.88
41264;BME280;26998;48.714;9.414;2023-06-10T06:38:23;98441.69;;;26.08;74.80
41264;BME280;26998;48.714;9.414;2023-06-10T06:40:49;98447.88;;;26.58;69.01
41264;BME280;26998;48.714;9.414;2023-06-10T06:43:16;98435.81;;;26.99;67.43
41264;BME280;26998;48.714;9.414;2023-06-10T06:45:43;98443.25;;;26.99;68.86
41264;BME280;26998;48.714;9.414;2023-06-10T06:48:09;98442.47;;;27.55;64.71
41264;BME280;26998;48.714;9.414;2023-06-10T06:50:36;98442.16;;;27.08;65.47
41264;BME280;26998;48.714;9.414;2023-06-10T06:53:04;98438.38;;;26.19;74.58
41264;BME280;26998;48.714;9.414;2023-06-10T06:55:31;98439.31;;;26.82;71.99
41264;BME280;26998;48.714;9.414;2023-06-10T06:57:58;98437.88;;;26.62;76.81
41264;BME280;26998;48.714;9.414;2023-06-10T07:00:25;98439.69;;;26.22;75.14
41264;BME280;26998;48.714;9.414;2023-06-10T07:02:52;98439.66;;;25.08;83.90
41264;BME280;26998;48.714;9.414;2023-06-10T07:05:19;98439.44;;;24.91;86.89
41264;BME280;26998;48.714;9.414;2023-06-10T07:07:46;98441.38;;;24.06;92.89
41264;BME280;26998;48.714;9.414;2023-06-10T07:10:12;98446.03;;;23.43;96.28
41264;BME280;26998;48.714;9.414;2023-06-10T07:12:39;98441.50;;;24.33;91.71
41264;BME280;26998;48.714;9.414;2023-06-10T07:15:06;98445.53;;;23.60;96.98
41264;BME280;26998;48.714;9.414;2023-06-10T07:17:33;98442.78;;;23.84;95.42
41264;BME280;26998;48.714;9.414;2023-06-10T07:20:00;98440.13;;;23.79;96.46
41264;BME280;26998;48.714;9.414;2023-06-10T07:22:26;98442.22;;;23.44;97.19
41264;BME280;26998;48.714;9.414;2023-06-10T07:24:53;98439.38;;;23.92;96.15
41264;BME280;26998;48.714;9.414;2023-06-10T07:27:20;98451.09;;;23.55;95.84
41264;BME280;26998;48.714;9.414;2023-06-10T07:29:46;98446.59;;;23.21;99.41
41264;BME280;26998;48.714;9.414;2023-06-10T07:32:13;98445.25;;;23.19;98.26
41264;BME280;26998;48.714;9.414;2023-06-10T07:34:41;98447.38;;;23.46;98.36
41264;BME280;26998;48.714;9.414;2023-06-10T07:37:07;98444.69;;;23.65;95.77
41264;BME280;26998;48.714;9.414;2023-06-10T07:39:34;98443.66;;;23.98;94.40
41264;BME280;26998;48.714;9.414;2023-06-10T07:42:01;98443.81;;;23.45;96.15
41264;BME280;26998;48.714;9.414;2023-06-10T07:44:27;98433.72;;;23.70;95.18
41264;BME280;26998;48.714;9.414;2023-06-10T07:46:54;98439.75;;;23.86;95.94
41264;BME280;26998;48.714;9.414;2023-06-10T07:49:21;98442.28;;;23.58;97.50
41264;BME280;26998;48.714;9.414;2023-06-10T07:51:47;98443.00;;;23.69;97.00
41264;BME280;26998;48.714;9.414;2023-06-10T07:54:14;98443.03;;;23.64;96.15
41264;BME280;26998;48.714;9.414;2023-06-10T07:56:43;98436.66;;;23.92;97.47
41264;BME280;26998;48.714;9.414;2023-06-10T07:59:09;98434.31;;;23.86;94.44
41264;BME280;26998;48.714;9.414;2023-06-10T08:01:36;98433.00;;;23.40;98.50
41264;BME280;26998;48.714;9.414;2023-06-10T08:04:03;98435.78;;;23.97;96.85
41264;BME280;26998;48.714;9.414;2023-06-10T08:06:31;98429.38;;;24.58;92.97
41264;BME280;26998;48.714;9.414;2023-06-10T08:08:58;98418.75;;;24.98;91.17
41264;BME280;26998;48.714;9.414;2023-06-10T08:11:24;98426.50;;;25.38;89.98
41264;BME280;26998;48.714;9.414;2023-06-10T08:13:51;98429.16;;;25.15;88.41
41264;BME280;26998;48.714;9.414;2023-06-10T08:16:18;98416.59;;;24.54;89.35
41264;BME280;26998;48.714;9.414;2023-06-10T08:18:44;98422.44;;;24.80;90.09
41264;BME280;26998;48.714;9.414;2023-06-10T08:21:11;98415.84;;;25.08;88.13
41264;BME280;26998;48.714;9.414;2023-06-10T08:23:37;98423.44;;;25.53;87.27
41264;BME280;26998;48.714;9.414;2023-06-10T08:26:04;98414.28;;;25.57;87.60
41264;BME280;26998;48.714;9.414;2023-06-10T08:28:31;98418.44;;;25.83;83.89
41264;BME280;26998;48.714;9.414;2023-06-10T08:30:57;98417.88;;;25.17;84.56
41264;BME280;26998;48.714;9.414;2023-06-10T08:33:24;98412.66;;;26.07;81.50
41264;BME280;26998;48.714;9.414;2023-06-10T08:35:50;98417.50;;;25.87;82.26
41264;BME280;26998;48.714;9.414;2023-06-10T08:38:17;98422.38;;;25.76;81.63
41264;BME280;26998;48.714;9.414;2023-06-10T08:40:43;98414.91;;;26.05;80.72
41264;BME280;26998;48.714;9.414;2023-06-10T08:43:17;98416.69;;;25.87;82.24
41264;BME280;26998;48.714;9.414;2023-06-10T08:45:48;98414.66;;;26.37;78.56
41264;BME280;26998;48.714;9.414;2023-06-10T08:48:16;98419.44;;;26.54;78.64
41264;BME280;26998;48.714;9.414;2023-06-10T08:50:44;98418.94;;;26.75;78.16
41264;BME280;26998;48.714;9.414;2023-06-10T08:53:14;98414.19;;;26.98;72.15
41264;BME280;26998;48.714;9.414;2023-06-10T08:55:46;98415.09;;;26.53;74.50
41264;BME280;26998;48.714;9.414;2023-06-10T08:58:15;98415.72;;;26.50;76.38
41264;BME280;26998;48.714;9.414;2023-06-10T09:00:42;98413.38;;;26.97;73.66
41264;BME280;26998;48.714;9.414;2023-06-10T09:03:09;98415.38;;;26.74;72.42
41264;BME280;26998;48.714;9.414;2023-06-10T09:05:37;98408.06;;;26.61;74.74
41264;BME280;26998;48.714;9.414;2023-06-10T09:08:10;98413.34;;;26.12;76.89
41264;BME280;26998;48.714;9.414;2023-06-10T09:10:37;98404.31;;;26.34;77.03
41264;BME280;26998;48.714;9.414;2023-06-10T09:13:04;98403.69;;;27.31;70.46
41264;BME280;26998;48.714;9.414;2023-06-10T09:15:33;98410.81;;;27.49;69.26
41264;BME280;26998;48.714;9.414;2023-06-10T09:18:00;98416.63;;;27.56;65.60
41264;BME280;26998;48.714;9.414;2023-06-10T09:20:28;98417.00;;;28.16;62.08
41264;BME280;26998;48.714;9.414;2023-06-10T09:22:55;98418.31;;;28.09;61.08
41264;BME280;26998;48.714;9.414;2023-06-10T09:25:34;98419.94;;;28.02;60.87
41264;BME280;26998;48.714;9.414;2023-06-10T09:28:01;98406.16;;;27.10;63.48
41264;BME280;26998;48.714;9.414;2023-06-10T09:30:34;98407.28;;;27.75;61.07
41264;BME280;26998;48.714;9.414;2023-06-10T09:33:02;98402.81;;;28.14;59.11
41264;BME280;26998;48.714;9.414;2023-06-10T09:35:30;98397.88;;;27.41;64.85
41264;BME280;26998;48.714;9.414;2023-06-10T09:37:59;98398.56;;;27.07;69.50
41264;BME280;26998;48.714;9.414;2023-06-10T09:40:26;98396.88;;;27.28;68.74
41264;BME280;26998;48.714;9.414;2023-06-10T09:42:58;98398.41;;;27.60;66.22
41264;BME280;26998;48.714;9.414;2023-06-10T09:45:30;98394.03;;;26.62;71.45
41264;BME280;26998;48.714;9.414;2023-06-10T09:47:57;98394.94;;;26.80;68.15
41264;BME280;26998;48.714;9.414;2023-06-10T09:50:24;98393.72;;;26.64;68.24
41264;BME280;26998;48.714;9.414;2023-06-10T09:52:51;98391.94;;;26.37;73.71
41264;BME280;26998;48.714;9.414;2023-06-10T09:55:19;98390.94;;;26.55;71.07
41264;BME280;26998;48.714;9.414;2023-06-10T09:57:49;98388.38;;;27.56;65.95
41264;BME280;26998;48.714;9.414;2023-06-10T10:00:23;98401.50;;;27.76;61.29
41264;BME280;26998;48.714;9.414;2023-06-10T10:02:51;98399.72;;;28.15;53.95
41264;BME280;26998;48.714;9.414;2023-06-10T10:05:22;98399.06;;;28.36;50.51
41264;BME280;26998;48.714;9.414;2023-06-10T10:07:50;98400.81;;;28.31;49.44
41264;BME280;26998;48.714;9.414;2023-06-10T10:10:19;98396.16;;;28.41;50.32
41264;BME280;26998;48.714;9.414;2023-06-10T10:12:47;98391.19;;;28.17;52.00
41264;BME280;26998;48.714;9.414;2023-06-10T10:15:17;98384.44;;;27.22;56.92
41264;BME280;26998;48.714;9.414;2023-06-10T10:17:59;98389.75;;;26.25;67.58
41264;BME280;26998;48.714;9.414;2023-06-10T10:20:30;98388.44;;;26.45;69.74
41264;BME280;26998;48.714;9.414;2023-06-10T10:22:57;98389.06;;;26.42;64.24
41264;BME280;26998;48.714;9.414;2023-06-10T10:25:32;98376.94;;;26.97;63.39
41264;BME280;26998;48.714;9.414;2023-06-10T10:28:10;98374.00;;;26.93;61.39
41264;BME280;26998;48.714;9.414;2023-06-10T10:30:42;98375.34;;;26.64;64.30
41264;BME280;26998;48.714;9.414;2023-06-10T10:33:20;98381.59;;;26.96;57.96
41264;BME280;26998;48.714;9.414;2023-06-10T10:35:49;98377.38;;;27.30;57.00
41264;BME280;26998;48.714;9.414;2023-06-10T10:38:16;98387.25;;;27.66;49.22
41264;BME280;26998;48.714;9.414;2023-06-10T10:40:44;98384.72;;;28.04;50.54
41264;BME280;26998;48.714;9.414;2023-06-10T10:43:12;98380.44;;;28.59;47.29
41264;BME280;26998;48.714;9.414;2023-06-10T10:45:39;98386.94;;;28.54;50.93
41264;BME280;26998;48.714;9.414;2023-06-10T10:48:08;98385.63;;;27.56;50.88
41264;BME280;26998;48.714;9.414;2023-06-10T10:50:35;98374.16;;;27.54;51.38
41264;BME280;26998;48.714;9.414;2023-06-10T10:53:04;98385.47;;;27.52;49.79
41264;BME280;26998;48.714;9.414;2023-06-10T10:55:31;98377.13;;;27.83;48.29
41264;BME280;26998;48.714;9.414;2023-06-10T10:58:02;98378.38;;;28.21;47.32
41264;BME280;26998;48.714;9.414;2023-06-10T11:00:33;98368.78;;;28.53;44.12
41264;BME280;26998;48.714;9.414;2023-06-10T11:08:08;98371.59;;;27.66;46.57
41264;BME280;26998;48.714;9.414;2023-06-10T11:10:40;98364.78;;;27.37;48.53
41264;BME280;26998;48.714;9.414;2023-06-10T11:13:14;98369.78;;;27.27;50.98
41264;BME280;26998;48.714;9.414;2023-06-10T11:15:46;98374.53;;;27.70;49.48
41264;BME280;26998;48.714;9.414;2023-06-10T11:31:28;98361.78;;;27.82;49.25
41264;BME280;26998;48.714;9.414;2023-06-10T11:34:01;98365.50;;;27.86;48.04
41264;BME280;26998;48.714;9.414;2023-06-10T11:36:28;98372.84;;;28.47;44.47
41264;BME280;26998;48.714;9.414;2023-06-10T11:39:03;98359.47;;;28.84;43.72
41264;BME280;26998;48.714;9.414;2023-06-10T11:41:34;98360.78;;;28.77;43.62
41264;BME280;26998;48.714;9.414;2023-06-10T11:44:13;98354.91;;;28.49;46.46
41264;BME280;26998;48.714;9.414;2023-06-10T11:46:50;98354.38;;;28.65;46.20
41264;BME280;26998;48.714;9.414;2023-06-10T11:49:17;98345.34;;;28.55;44.87
41264;BME280;26998;48.714;9.414;2023-06-10T11:51:44;98340.22;;;28.28;44.61
41264;BME280;26998;48.714;9.414;2023-06-10T11:54:11;98338.16;;;28.72;43.70
41264;BME280;26998;48.714;9.414;2023-06-10T11:56:38;98335.59;;;29.35;40.29
41264;BME280;26998;48.714;9.414;2023-06-10T11:59:06;98348.09;;;28.55;41.73
41264;BME280;26998;48.714;9.414;2023-06-10T12:01:35;98341.88;;;29.14;41.69
41264;BME280;26998;48.714;9.414;2023-06-10T12:04:08;98339.78;;;28.73;41.51
41264;BME280;26998;48.714;9.414;2023-06-10T12:12:01;98334.00;;;28.95;43.53
41264;BME280;26998;48.714;9.414;2023-06-10T12:17:37;98328.94;;;29.06;41.25
41264;BME280;26998;48.714;9.414;2023-06-10T12:20:12;98320.97;;;28.84;41.61
41264;BME280;26998;48.714;9.414;2023-06-10T12:22:50;98325.00;;;28.86;41.69
41264;BME280;26998;48.714;9.414;2023-06-10T12:25:24;98316.38;;;28.96;41.42
41264;BME280;26998;48.714;9.414;2023-06-10T12:27:55;98323.53;;;29.18;41.21
41264;BME280;26998;48.714;9.414;2023-06-10T12:30:23;98322.84;;;29.00;41.45
41264;BME280;26998;48.714;9.414;2023-06-10T12:32:50;98316.47;;;29.09;41.50
41264;BME280;26998;48.714;9.414;2023-06-10T12:35:18;98313.13;;;29.03;40.70
41264;BME280;26998;48.714;9.414;2023-06-10T12:38:01;98320.88;;;28.63;42.44
41264;BME280;26998;48.714;9.414;2023-06-10T12:42:59;98326.00;;;28.43;43.82
41264;BME280;26998;48.714;9.414;2023-06-10T12:45:29;98324.47;;;28.63;42.18
41264;BME280;26998;48.714;9.414;2023-06-10T12:50:41;98315.25;;;28.97;41.69
41264;BME280;26998;48.714;9.414;2023-06-10T12:53:09;98315.19;;;28.76;41.07
41264;BME280;26998;48.714;9.414;2023-06-10T12:55:37;98313.16;;;29.24;38.55
41264;BME280;26998;48.714;9.414;2023-06-10T12:58:04;98313.50;;;29.22;39.24
41264;BME280;26998;48.714;9.414;2023-06-10T13:00:31;98311.88;;;29.21;38.64
41264;BME280;26998;48.714;9.414;2023-06-10T13:02:59;98312.13;;;29.08;39.23
41264;BME280;26998;48.714;9.414;2023-06-10T13:05:26;98304.72;;;28.91;40.76
41264;BME280;26998;48.714;9.414;2023-06-10T13:07:54;98310.59;;;29.19;40.09
41264;BME280;26998;48.714;9.414;2023-06-10T13:10:22;98310.03;;;29.76;38.55
41264;BME280;26998;48.714;9.414;2023-06-10T13:12:52;98315.00;;;29.41;38.10
41264;BME280;26998;48.714;9.414;2023-06-10T13:15:18;98296.44;;;28.99;39.16
41264;BME280;26998;48.714;9.414;2023-06-10T13:17:46;98297.69;;;28.81;40.26
41264;BME280;26998;48.714;9.414;2023-06-10T13:20:13;98295.84;;;29.23;40.40
41264;BME280;26998;48.714;9.414;2023-06-10T13:22:40;98292.38;;;28.76;40.88
41264;BME280;26998;48.714;9.414;2023-06-10T13:25:07;98286.75;;;28.72;41.12
41264;BME280;26998;48.714;9.414;2023-06-10T13:27:36;98294.75;;;29.16;41.47
41264;BME280;26998;48.714;9.414;2023-06-10T13:30:05;98297.34;;;29.63;39.10
41264;BME280;26998;48.714;9.414;2023-06-10T13:32:32;98296.53;;;29.41;39.71
41264;BME280;26998;48.714;9.414;2023-06-10T13:34:58;98296.91;;;29.10;40.38